createdAt,value
2017-03-26T00:00:55.774Z,6.10
2017-03-26T00:02:01.574Z,6.00
2017-03-26T00:03:07.537Z,6.00
2017-03-26T00:04:13.364Z,6.00
2017-03-26T00:05:19.088Z,6.00
2017-03-26T00:06:25.100Z,6.00
2017-03-26T00:07:31.100Z,6.00
2017-03-26T00:08:36.851Z,6.00
2017-03-26T00:09:42.682Z,6.00
2017-03-26T00:10:48.423Z,6.00
2017-03-26T00:11:54.203Z,5.90
2017-03-26T00:12:59.983Z,5.90
2017-03-26T00:14:05.794Z,5.90
2017-03-26T00:15:11.548Z,5.90
2017-03-26T00:16:18.454Z,5.90
2017-03-26T00:17:24.226Z,5.90
2017-03-26T00:18:29.952Z,5.90
2017-03-26T00:19:35.727Z,5.90
2017-03-26T00:20:41.582Z,5.90
2017-03-26T00:21:47.337Z,5.80
2017-03-26T00:22:53.089Z,5.80
2017-03-26T00:23:58.956Z,5.80
2017-03-26T00:25:04.814Z,5.80
2017-03-26T00:26:10.600Z,5.80
2017-03-26T00:27:16.602Z,5.70
2017-03-26T00:28:23.092Z,5.60
2017-03-26T00:29:28.883Z,5.60
2017-03-26T00:30:34.723Z,5.70
2017-03-26T00:31:40.638Z,5.60
2017-03-26T00:32:46.548Z,5.60
2017-03-26T00:33:53.285Z,5.60
2017-03-26T00:34:58.998Z,5.50
2017-03-26T00:36:05.648Z,5.60
2017-03-26T00:37:11.668Z,5.60
2017-03-26T00:38:17.677Z,5.60
2017-03-26T00:39:24.255Z,5.70
2017-03-26T00:40:29.950Z,5.70
2017-03-26T00:41:35.808Z,5.80
2017-03-26T00:42:41.791Z,5.80
2017-03-26T00:43:47.767Z,5.80
2017-03-26T00:44:53.527Z,5.80
2017-03-26T00:45:59.498Z,5.80
2017-03-26T00:47:05.303Z,5.80
2017-03-26T00:48:11.038Z,5.90
2017-03-26T00:49:17.132Z,5.90
2017-03-26T00:50:23.087Z,5.90
2017-03-26T00:51:29.009Z,5.90
2017-03-26T00:52:35.585Z,5.80
2017-03-26T00:53:41.591Z,5.90
2017-03-26T00:54:47.412Z,5.90
2017-03-26T00:55:53.152Z,5.90
2017-03-26T00:56:58.871Z,5.90
2017-03-26T00:58:05.311Z,6.00
2017-03-26T00:59:11.125Z,5.90
2017-03-26T01:00:17.134Z,5.90
2017-03-26T01:01:23.002Z,6.00
2017-03-26T01:02:28.997Z,6.00
2017-03-26T01:03:34.946Z,6.00
2017-03-26T01:04:40.800Z,6.10
2017-03-26T01:05:46.543Z,6.10
2017-03-26T01:06:52.398Z,6.00
2017-03-26T01:07:58.334Z,6.00
2017-03-26T01:09:04.268Z,6.00
2017-03-26T01:10:10.138Z,5.90
2017-03-26T01:11:16.104Z,5.80
2017-03-26T01:12:21.906Z,5.80
2017-03-26T01:13:27.862Z,5.80
2017-03-26T01:14:33.787Z,6.00
2017-03-26T01:15:39.692Z,5.90
2017-03-26T01:16:45.710Z,5.90
2017-03-26T01:17:51.488Z,5.90
2017-03-26T01:18:58.091Z,5.90
2017-03-26T01:20:04.651Z,5.90
2017-03-26T01:21:10.521Z,5.80
2017-03-26T01:22:16.210Z,5.80
2017-03-26T01:23:22.216Z,5.80
2017-03-26T01:24:28.197Z,5.80
2017-03-26T01:25:34.157Z,5.80
2017-03-26T01:26:40.671Z,5.80
2017-03-26T01:27:46.654Z,5.90
2017-03-26T01:28:52.553Z,5.80
2017-03-26T01:29:58.410Z,5.80
2017-03-26T01:31:04.279Z,5.80
2017-03-26T01:32:10.884Z,5.80
2017-03-26T01:33:16.791Z,5.80
2017-03-26T01:34:23.542Z,5.80
2017-03-26T01:35:29.664Z,5.70
2017-03-26T01:36:35.618Z,5.80
2017-03-26T01:37:41.376Z,5.80
2017-03-26T01:38:47.211Z,5.70
2017-03-26T01:39:53.093Z,5.70
2017-03-26T01:40:59.066Z,5.60
2017-03-26T01:42:04.874Z,5.70
2017-03-26T01:43:10.656Z,5.70
2017-03-26T01:44:16.429Z,5.70
2017-03-26T01:45:22.519Z,5.70
2017-03-26T01:46:28.534Z,5.80
2017-03-26T01:47:34.411Z,5.80
2017-03-26T01:48:40.191Z,5.80
2017-03-26T01:49:46.182Z,5.80
2017-03-26T01:50:51.938Z,5.70
2017-03-26T01:51:58.563Z,5.70
2017-03-26T01:53:04.534Z,5.80
2017-03-26T01:54:10.394Z,5.80
2017-03-26T01:55:16.995Z,5.80
2017-03-26T01:56:22.799Z,5.80
2017-03-26T01:57:28.779Z,5.80
2017-03-26T01:58:34.676Z,5.80
2017-03-26T01:59:40.430Z,5.80
2017-03-26T02:00:46.243Z,5.70
2017-03-26T02:01:52.845Z,5.70
2017-03-26T02:02:58.626Z,5.70
2017-03-26T02:04:04.425Z,5.80
2017-03-26T02:05:10.414Z,5.80
2017-03-26T02:06:16.462Z,5.80
2017-03-26T02:07:22.428Z,5.70
2017-03-26T02:08:28.210Z,5.70
2017-03-26T02:09:33.951Z,5.70
2017-03-26T02:10:39.890Z,5.70
2017-03-26T02:11:46.421Z,5.60
2017-03-26T02:12:52.403Z,5.60
2017-03-26T02:13:58.182Z,5.60
2017-03-26T02:15:04.168Z,5.60
2017-03-26T02:16:10.917Z,5.60
2017-03-26T02:17:16.898Z,5.60
2017-03-26T02:18:22.815Z,5.60
2017-03-26T02:19:28.554Z,5.60
2017-03-26T02:20:34.303Z,5.60
2017-03-26T02:21:40.066Z,5.60
2017-03-26T02:22:45.917Z,5.70
2017-03-26T02:23:51.723Z,5.70
2017-03-26T02:24:57.683Z,5.60
2017-03-26T02:26:03.422Z,5.50
2017-03-26T02:27:09.140Z,5.50
2017-03-26T02:28:14.979Z,5.60
2017-03-26T02:29:20.929Z,5.60
2017-03-26T02:30:26.706Z,5.60
2017-03-26T02:31:32.667Z,5.60
2017-03-26T02:32:38.508Z,5.60
2017-03-26T02:33:44.536Z,5.70
2017-03-26T02:34:50.462Z,5.70
2017-03-26T02:35:56.173Z,5.80
2017-03-26T02:37:02.062Z,5.70
2017-03-26T02:38:07.986Z,5.70
2017-03-26T02:39:13.851Z,5.70
2017-03-26T02:40:19.679Z,5.80
2017-03-26T02:41:25.567Z,5.70
2017-03-26T02:42:31.449Z,5.80
2017-03-26T02:43:37.518Z,5.80
2017-03-26T02:44:43.421Z,5.80
2017-03-26T02:45:49.338Z,5.80
2017-03-26T02:46:55.087Z,5.80
2017-03-26T02:48:01.063Z,5.90
2017-03-26T02:49:06.827Z,5.90
2017-03-26T02:50:12.582Z,5.80
2017-03-26T02:51:24.917Z,5.80
2017-03-26T02:52:30.822Z,5.70
2017-03-26T02:53:36.743Z,5.70
2017-03-26T02:54:42.698Z,5.80
2017-03-26T02:55:48.580Z,5.80
2017-03-26T02:56:54.574Z,5.80
2017-03-26T02:58:00.358Z,5.90
2017-03-26T02:59:06.239Z,5.90
2017-03-26T03:00:12.274Z,5.90
2017-03-26T03:01:18.058Z,5.90
2017-03-26T03:02:24.019Z,6.00
2017-03-26T03:03:29.762Z,6.00
2017-03-26T03:04:35.596Z,6.00
2017-03-26T03:05:41.601Z,6.00
2017-03-26T03:06:47.359Z,6.10
2017-03-26T03:07:53.254Z,6.10
2017-03-26T03:08:58.961Z,6.00
2017-03-26T03:10:04.698Z,6.00
2017-03-26T03:11:10.408Z,5.90
2017-03-26T03:12:16.355Z,5.80
2017-03-26T03:13:22.346Z,5.80
2017-03-26T03:14:28.294Z,5.80
2017-03-26T03:15:34.155Z,5.70
2017-03-26T03:16:40.098Z,5.70
2017-03-26T03:17:45.957Z,5.60
2017-03-26T03:18:51.870Z,5.50
2017-03-26T03:19:58.380Z,5.50
2017-03-26T03:21:04.203Z,5.40
2017-03-26T03:22:10.059Z,5.50
2017-03-26T03:23:15.842Z,5.60
2017-03-26T03:24:21.741Z,5.60
2017-03-26T03:25:27.747Z,5.60
2017-03-26T03:26:33.799Z,5.60
2017-03-26T03:27:39.631Z,5.50
2017-03-26T03:28:45.411Z,5.50
2017-03-26T03:29:51.142Z,5.50
2017-03-26T03:30:56.887Z,5.40
2017-03-26T03:32:02.649Z,5.50
2017-03-26T03:33:09.240Z,5.50
2017-03-26T03:34:15.110Z,5.50
2017-03-26T03:35:21.666Z,5.50
2017-03-26T03:36:27.406Z,5.50
2017-03-26T03:37:33.129Z,5.60
2017-03-26T03:38:39.022Z,5.60
2017-03-26T03:39:44.834Z,5.60
2017-03-26T03:40:50.717Z,5.70
2017-03-26T03:41:56.543Z,5.70
2017-03-26T03:43:03.175Z,5.70
2017-03-26T03:44:09.024Z,5.80
2017-03-26T03:45:14.834Z,5.80
2017-03-26T03:46:20.712Z,5.80
2017-03-26T03:47:26.458Z,5.80
2017-03-26T03:48:32.218Z,5.80
2017-03-26T03:49:38.015Z,5.80
2017-03-26T03:50:43.810Z,5.80
2017-03-26T03:51:49.585Z,5.80
2017-03-26T03:52:55.304Z,5.80
2017-03-26T03:54:01.211Z,5.90
2017-03-26T03:55:07.219Z,5.80
2017-03-26T03:56:12.981Z,5.90
2017-03-26T03:57:18.845Z,5.90
2017-03-26T03:58:24.559Z,5.90
2017-03-26T03:59:30.325Z,5.90
2017-03-26T04:00:36.326Z,5.90
2017-03-26T04:01:43.066Z,5.80
2017-03-26T04:02:49.182Z,5.80
2017-03-26T04:03:55.156Z,5.80
2017-03-26T04:05:02.566Z,5.70
2017-03-26T04:06:08.348Z,5.60
2017-03-26T04:07:14.378Z,5.60
2017-03-26T04:08:20.098Z,5.50
2017-03-26T04:09:25.998Z,5.50
2017-03-26T04:10:31.690Z,5.50
2017-03-26T04:11:37.750Z,5.50
2017-03-26T04:12:43.522Z,5.40
2017-03-26T04:13:49.271Z,5.40
2017-03-26T04:14:55.258Z,5.40
2017-03-26T04:16:01.041Z,5.40
2017-03-26T04:17:07.029Z,5.30
2017-03-26T04:18:12.967Z,5.30
2017-03-26T04:19:20.150Z,5.30
2017-03-26T04:20:26.006Z,5.30
2017-03-26T04:21:31.822Z,5.30
2017-03-26T04:22:37.605Z,5.20
2017-03-26T04:23:43.407Z,5.10
2017-03-26T04:24:49.120Z,5.10
2017-03-26T04:25:54.898Z,5.10
2017-03-26T04:27:00.641Z,5.00
2017-03-26T04:28:06.454Z,5.00
2017-03-26T04:29:12.515Z,5.00
2017-03-26T04:30:18.339Z,5.00
2017-03-26T04:31:24.110Z,5.00
2017-03-26T04:32:30.105Z,5.00
2017-03-26T04:33:35.863Z,5.00
2017-03-26T04:34:41.819Z,5.00
2017-03-26T04:35:47.596Z,5.00
2017-03-26T04:36:53.562Z,5.00
2017-03-26T04:37:59.339Z,5.00
2017-03-26T04:39:05.057Z,5.10
2017-03-26T04:40:10.865Z,5.10
2017-03-26T04:41:16.823Z,5.00
2017-03-26T04:42:22.613Z,5.00
2017-03-26T04:43:28.455Z,5.00
2017-03-26T04:44:34.381Z,4.90
2017-03-26T04:45:40.274Z,4.90
2017-03-26T04:46:46.825Z,4.80
2017-03-26T04:47:52.562Z,4.80
2017-03-26T04:48:58.483Z,4.80
2017-03-26T04:50:04.369Z,4.80
2017-03-26T04:51:10.251Z,4.80
2017-03-26T04:52:16.134Z,4.80
2017-03-26T04:53:21.841Z,4.80
2017-03-26T04:54:28.342Z,4.90
2017-03-26T04:55:34.270Z,4.90
2017-03-26T04:56:40.053Z,4.80
2017-03-26T04:57:45.850Z,4.70
2017-03-26T04:58:51.676Z,4.60
2017-03-26T04:59:57.398Z,4.60
2017-03-26T05:01:03.159Z,4.50
2017-03-26T05:02:08.946Z,4.50
2017-03-26T05:03:14.783Z,4.60
2017-03-26T05:04:20.598Z,4.60
2017-03-26T05:05:26.542Z,4.60
2017-03-26T05:06:32.225Z,4.50
2017-03-26T05:07:38.071Z,4.50
2017-03-26T05:08:44.027Z,4.50
2017-03-26T05:09:49.847Z,4.50
2017-03-26T05:10:55.590Z,4.50
2017-03-26T05:12:02.172Z,4.50
2017-03-26T05:13:07.927Z,4.50
2017-03-26T05:14:13.731Z,4.50
2017-03-26T05:15:19.594Z,4.40
2017-03-26T05:16:25.403Z,4.40
2017-03-26T05:17:31.878Z,4.40
2017-03-26T05:18:37.749Z,4.50
2017-03-26T05:19:43.798Z,4.60
2017-03-26T05:20:49.713Z,4.60
2017-03-26T05:21:55.594Z,4.60
2017-03-26T05:23:01.343Z,4.50
2017-03-26T05:24:07.163Z,4.50
2017-03-26T05:25:12.904Z,4.50
2017-03-26T05:26:18.627Z,4.60
2017-03-26T05:27:24.612Z,4.60
2017-03-26T05:28:30.333Z,4.50
2017-03-26T05:29:36.065Z,4.50
2017-03-26T05:30:41.864Z,4.50
2017-03-26T05:31:47.858Z,4.50
2017-03-26T05:32:53.574Z,4.60
2017-03-26T05:33:59.403Z,4.50
2017-03-26T05:35:05.305Z,4.60
2017-03-26T05:36:11.833Z,4.60
2017-03-26T05:37:17.566Z,4.60
2017-03-26T05:38:23.437Z,4.60
2017-03-26T05:39:29.226Z,4.70
2017-03-26T05:40:35.121Z,4.70
2017-03-26T05:41:41.145Z,4.70
2017-03-26T05:42:46.908Z,4.70
2017-03-26T05:43:52.679Z,4.70
2017-03-26T05:44:58.395Z,4.70
2017-03-26T05:46:04.382Z,4.70
2017-03-26T05:47:10.998Z,4.80
2017-03-26T05:48:17.530Z,4.80
2017-03-26T05:49:24.011Z,4.80
2017-03-26T05:50:30.074Z,4.80
2017-03-26T05:51:35.884Z,4.80
2017-03-26T05:52:41.846Z,4.90
2017-03-26T05:53:47.617Z,4.90
2017-03-26T05:54:53.315Z,4.90
2017-03-26T05:55:59.090Z,4.90
2017-03-26T05:57:04.903Z,5.00
2017-03-26T05:58:10.626Z,4.90
2017-03-26T05:59:16.430Z,4.90
2017-03-26T06:00:22.474Z,4.90
2017-03-26T06:01:28.196Z,4.90
2017-03-26T06:02:34.005Z,5.00
2017-03-26T06:03:39.923Z,5.00
2017-03-26T06:04:45.814Z,5.10
2017-03-26T06:05:51.554Z,5.10
2017-03-26T06:06:57.435Z,5.00
2017-03-26T06:08:03.364Z,4.90
2017-03-26T06:09:09.099Z,5.00
2017-03-26T06:10:15.014Z,5.10
2017-03-26T06:11:20.753Z,5.10
2017-03-26T06:12:26.507Z,5.20
2017-03-26T06:13:32.363Z,5.30
2017-03-26T06:14:38.410Z,5.20
2017-03-26T06:15:44.226Z,5.40
2017-03-26T06:16:50.005Z,5.60
2017-03-26T06:17:55.765Z,5.80
2017-03-26T06:19:01.598Z,5.90
2017-03-26T06:20:07.508Z,6.20
2017-03-26T06:21:13.250Z,6.30
2017-03-26T06:22:19.103Z,6.50
2017-03-26T06:23:24.887Z,6.80
2017-03-26T06:24:30.705Z,7.00
2017-03-26T06:25:36.450Z,7.20
2017-03-26T06:26:42.272Z,7.20
2017-03-26T06:27:48.384Z,7.00
2017-03-26T06:28:54.182Z,6.90
2017-03-26T06:30:00.080Z,7.00
2017-03-26T06:31:05.850Z,7.20
2017-03-26T06:32:11.614Z,7.40
2017-03-26T06:33:17.466Z,7.50
2017-03-26T06:34:23.381Z,7.70
2017-03-26T06:35:29.097Z,7.90
2017-03-26T06:36:34.943Z,8.20
2017-03-26T06:37:40.790Z,8.40
2017-03-26T06:38:46.775Z,8.50
2017-03-26T06:39:52.564Z,8.30
2017-03-26T06:40:58.412Z,8.20
2017-03-26T06:42:04.198Z,8.20
2017-03-26T06:43:10.201Z,7.90
2017-03-26T06:44:16.312Z,7.70
2017-03-26T06:45:22.258Z,7.50
2017-03-26T06:46:28.012Z,7.30
2017-03-26T06:47:33.990Z,7.40
2017-03-26T06:48:39.891Z,7.40
2017-03-26T06:49:45.725Z,7.30
2017-03-26T06:50:51.542Z,7.30
2017-03-26T06:51:57.492Z,7.20
2017-03-26T06:53:03.416Z,7.10
2017-03-26T06:54:09.306Z,7.20
2017-03-26T06:55:15.075Z,7.20
2017-03-26T06:56:20.892Z,7.20
2017-03-26T06:57:26.651Z,7.20
2017-03-26T06:58:32.505Z,7.10
2017-03-26T06:59:38.958Z,7.10
2017-03-26T07:00:45.435Z,7.00
2017-03-26T07:01:51.873Z,7.00
2017-03-26T07:02:57.624Z,7.10
2017-03-26T07:04:04.064Z,7.10
2017-03-26T07:05:09.797Z,7.10
2017-03-26T07:06:15.537Z,7.20
2017-03-26T07:07:21.511Z,7.30
2017-03-26T07:08:27.282Z,7.30
2017-03-26T07:09:33.101Z,7.40
2017-03-26T07:10:38.929Z,7.50
2017-03-26T07:11:44.822Z,7.80
2017-03-26T07:12:50.518Z,8.10
2017-03-26T07:13:56.260Z,8.40
2017-03-26T07:15:02.137Z,8.70
2017-03-26T07:16:07.879Z,8.80
2017-03-26T07:17:13.646Z,9.00
2017-03-26T07:18:19.703Z,8.80
2017-03-26T07:19:25.485Z,9.10
2017-03-26T07:20:31.185Z,9.10
2017-03-26T07:21:36.941Z,8.90
2017-03-26T07:22:43.523Z,9.10
2017-03-26T07:23:50.010Z,9.20
2017-03-26T07:24:55.782Z,9.60
2017-03-26T07:26:01.670Z,9.80
2017-03-26T07:27:07.475Z,9.80
2017-03-26T07:28:13.418Z,9.80
2017-03-26T07:29:19.377Z,9.90
2017-03-26T07:30:25.174Z,9.60
2017-03-26T07:31:31.123Z,9.40
2017-03-26T07:32:36.998Z,9.30
2017-03-26T07:33:42.787Z,9.30
2017-03-26T07:34:48.656Z,9.20
2017-03-26T07:35:54.602Z,8.80
2017-03-26T07:37:00.473Z,8.60
2017-03-26T07:38:06.213Z,8.50
2017-03-26T07:39:12.229Z,8.50
2017-03-26T07:40:18.087Z,8.30
2017-03-26T07:41:23.878Z,8.30
2017-03-26T07:42:29.789Z,8.30
2017-03-26T07:43:35.669Z,8.30
2017-03-26T07:44:41.519Z,8.20
2017-03-26T07:45:47.378Z,8.20
2017-03-26T07:46:53.870Z,8.30
2017-03-26T07:47:59.925Z,8.50
2017-03-26T07:49:05.668Z,8.40
2017-03-26T07:50:11.386Z,8.50
2017-03-26T07:51:17.119Z,8.60
2017-03-26T07:52:22.988Z,8.90
2017-03-26T07:53:28.890Z,9.00
2017-03-26T07:54:34.603Z,9.20
2017-03-26T07:55:40.389Z,9.30
2017-03-26T07:56:46.171Z,9.30
2017-03-26T07:57:52.078Z,9.10
2017-03-26T07:58:57.879Z,9.00
2017-03-26T08:00:03.677Z,8.60
2017-03-26T08:01:09.669Z,8.40
2017-03-26T08:02:15.494Z,8.50
2017-03-26T08:03:21.295Z,8.50
2017-03-26T08:04:27.254Z,8.60
2017-03-26T08:05:33.839Z,8.90
2017-03-26T08:06:39.802Z,9.10
2017-03-26T08:07:45.774Z,9.20
2017-03-26T08:08:51.635Z,9.00
2017-03-26T08:09:57.422Z,8.80
2017-03-26T08:11:03.713Z,8.70
2017-03-26T08:12:09.758Z,8.80
2017-03-26T08:13:15.768Z,8.80
2017-03-26T08:14:21.603Z,8.90
2017-03-26T08:15:27.427Z,8.80
2017-03-26T08:16:33.145Z,8.50
2017-03-26T08:17:38.946Z,8.50
2017-03-26T08:18:45.041Z,8.40
2017-03-26T08:19:50.935Z,8.40
2017-03-26T08:20:56.907Z,8.20
2017-03-26T08:22:02.787Z,8.10
2017-03-26T08:23:08.561Z,8.00
2017-03-26T08:24:15.818Z,8.10
2017-03-26T08:25:21.959Z,8.10
2017-03-26T08:26:27.782Z,8.10
2017-03-26T08:27:33.641Z,8.20
2017-03-26T08:28:39.751Z,8.30
2017-03-26T08:29:46.246Z,8.30
2017-03-26T08:30:52.074Z,8.50
2017-03-26T08:31:58.026Z,8.50
2017-03-26T08:33:04.122Z,8.50
2017-03-26T08:34:10.041Z,8.50
2017-03-26T08:35:15.828Z,8.50
2017-03-26T08:36:21.671Z,8.50
2017-03-26T08:37:27.519Z,8.50
2017-03-26T08:38:33.287Z,8.40
2017-03-26T08:39:39.792Z,8.30
2017-03-26T08:40:45.725Z,8.50
2017-03-26T08:41:51.474Z,8.50
2017-03-26T08:42:57.394Z,8.40
2017-03-26T08:44:03.952Z,8.40
2017-03-26T08:45:09.843Z,8.40
2017-03-26T08:46:15.670Z,8.40
2017-03-26T08:47:21.366Z,8.50
2017-03-26T08:48:27.153Z,8.60
2017-03-26T08:49:33.739Z,8.50
2017-03-26T08:50:39.502Z,8.40
2017-03-26T08:51:45.244Z,8.30
2017-03-26T08:52:51.284Z,8.30
2017-03-26T08:53:57.062Z,8.40
2017-03-26T08:55:02.742Z,8.40
2017-03-26T08:56:08.465Z,8.40
2017-03-26T08:57:14.244Z,8.40
2017-03-26T08:58:20.122Z,8.50
2017-03-26T08:59:25.894Z,8.40
2017-03-26T09:00:31.637Z,8.40
2017-03-26T09:01:37.505Z,8.50
2017-03-26T09:02:43.335Z,8.60
2017-03-26T09:03:49.111Z,8.70
2017-03-26T09:04:55.034Z,8.70
2017-03-26T09:06:00.792Z,8.80
2017-03-26T09:07:07.355Z,8.90
2017-03-26T09:08:13.863Z,9.00
2017-03-26T09:09:19.622Z,9.20
2017-03-26T09:10:25.666Z,9.20
2017-03-26T09:11:31.471Z,9.20
2017-03-26T09:12:37.291Z,9.10
2017-03-26T09:13:43.229Z,9.10
2017-03-26T09:14:49.770Z,9.10
2017-03-26T09:15:55.687Z,9.30
2017-03-26T09:17:01.541Z,9.40
2017-03-26T09:18:07.406Z,9.30
2017-03-26T09:19:13.171Z,9.20
2017-03-26T09:20:19.168Z,9.20
2017-03-26T09:21:25.106Z,9.20
2017-03-26T09:22:30.906Z,9.10
2017-03-26T09:23:36.909Z,9.10
2017-03-26T09:24:42.699Z,9.20
2017-03-26T09:25:48.571Z,9.20
2017-03-26T09:26:54.537Z,9.20
2017-03-26T09:28:00.243Z,9.20
2017-03-26T09:29:06.155Z,9.30
2017-03-26T09:30:11.838Z,9.20
2017-03-26T09:31:17.731Z,9.20
2017-03-26T09:32:23.579Z,9.10
2017-03-26T09:33:29.416Z,9.20
2017-03-26T09:34:35.390Z,9.40
2017-03-26T09:35:41.199Z,9.40
2017-03-26T09:36:47.060Z,9.30
2017-03-26T09:37:53.050Z,9.30
2017-03-26T09:38:58.834Z,9.10
2017-03-26T09:40:04.856Z,9.00
2017-03-26T09:41:10.814Z,9.00
2017-03-26T09:42:16.555Z,8.90
2017-03-26T09:43:22.517Z,8.90
2017-03-26T09:44:28.519Z,9.00
2017-03-26T09:45:34.250Z,9.10
2017-03-26T09:46:40.018Z,9.20
2017-03-26T09:47:45.775Z,9.30
2017-03-26T09:48:51.750Z,9.40
2017-03-26T09:49:57.482Z,9.50
2017-03-26T09:51:03.234Z,9.70
2017-03-26T09:52:08.976Z,9.80
2017-03-26T09:53:14.943Z,9.90
2017-03-26T09:54:20.700Z,9.90
2017-03-26T09:55:26.455Z,9.90
2017-03-26T09:56:32.218Z,10.00
2017-03-26T09:57:38.131Z,10.00
2017-03-26T09:58:43.855Z,9.80
2017-03-26T09:59:49.641Z,9.80
2017-03-26T10:00:55.570Z,9.90
2017-03-26T10:02:01.319Z,9.90
2017-03-26T10:03:07.181Z,9.90
2017-03-26T10:04:12.938Z,9.90
2017-03-26T10:05:18.738Z,9.70
2017-03-26T10:06:24.569Z,9.50
2017-03-26T10:07:30.453Z,9.60
2017-03-26T10:08:36.249Z,9.70
2017-03-26T10:09:42.033Z,9.70
2017-03-26T10:10:47.872Z,9.40
2017-03-26T10:11:53.814Z,9.40
2017-03-26T10:12:59.567Z,9.30
2017-03-26T10:14:05.410Z,9.30
2017-03-26T10:15:17.957Z,9.40
2017-03-26T10:16:23.834Z,9.50
2017-03-26T10:17:29.650Z,9.60
2017-03-26T10:18:35.412Z,9.60
2017-03-26T10:19:41.213Z,9.70
2017-03-26T10:20:46.997Z,9.70
2017-03-26T10:21:52.883Z,9.90
2017-03-26T10:22:58.622Z,10.10
2017-03-26T10:24:04.560Z,10.20
2017-03-26T10:25:10.450Z,10.20
2017-03-26T10:26:16.243Z,10.30
2017-03-26T10:27:21.951Z,10.20
2017-03-26T10:28:28.139Z,10.20
2017-03-26T10:29:34.048Z,10.30
2017-03-26T10:30:39.915Z,10.30
2017-03-26T10:31:45.763Z,10.20
2017-03-26T10:32:51.763Z,10.10
2017-03-26T10:33:57.522Z,10.30
2017-03-26T10:35:03.333Z,10.40
2017-03-26T10:36:09.414Z,10.80
2017-03-26T10:37:15.434Z,11.10
2017-03-26T10:38:21.210Z,11.10
2017-03-26T10:39:27.031Z,11.00
2017-03-26T10:40:32.783Z,10.90
2017-03-26T10:41:38.466Z,10.50
2017-03-26T10:42:44.283Z,10.20
2017-03-26T10:43:50.158Z,10.20
2017-03-26T10:44:55.920Z,10.30
2017-03-26T10:46:02.405Z,10.40
2017-03-26T10:47:08.282Z,10.40
2017-03-26T10:48:14.136Z,10.40
2017-03-26T10:49:20.121Z,10.30
2017-03-26T10:50:26.650Z,10.20
2017-03-26T10:51:32.467Z,10.20
2017-03-26T10:52:38.339Z,10.20
2017-03-26T10:53:44.439Z,10.10
2017-03-26T10:54:50.973Z,10.10
2017-03-26T10:55:56.784Z,10.20
2017-03-26T10:57:02.769Z,10.20
2017-03-26T10:58:08.474Z,10.20
2017-03-26T10:59:14.275Z,10.40
2017-03-26T11:00:20.463Z,10.40
2017-03-26T11:01:26.378Z,10.50
2017-03-26T11:02:32.879Z,10.50
2017-03-26T11:03:39.465Z,10.60
2017-03-26T11:04:45.286Z,10.50
2017-03-26T11:05:51.112Z,10.30
2017-03-26T11:06:57.092Z,10.30
2017-03-26T11:08:02.959Z,10.20
2017-03-26T11:09:08.907Z,10.20
2017-03-26T11:10:14.751Z,10.20
2017-03-26T11:11:20.702Z,10.10
2017-03-26T11:12:26.466Z,10.20
2017-03-26T11:13:32.242Z,10.10
2017-03-26T11:14:38.025Z,10.20
2017-03-26T11:15:44.051Z,10.30
2017-03-26T11:16:50.010Z,10.30
2017-03-26T11:17:55.769Z,10.20
2017-03-26T11:19:01.757Z,10.20
2017-03-26T11:20:07.662Z,10.20
2017-03-26T11:21:13.578Z,10.30
2017-03-26T11:22:19.377Z,10.40
2017-03-26T11:23:25.142Z,10.50
2017-03-26T11:24:31.148Z,10.60
2017-03-26T11:25:37.127Z,10.60
2017-03-26T11:26:42.908Z,10.50
2017-03-26T11:27:48.961Z,10.60
2017-03-26T11:28:54.847Z,10.60
2017-03-26T11:30:00.852Z,10.50
2017-03-26T11:31:06.874Z,10.50
2017-03-26T11:32:12.882Z,10.60
2017-03-26T11:33:18.689Z,10.80
2017-03-26T11:34:24.473Z,10.90
2017-03-26T11:35:31.061Z,10.80
2017-03-26T11:36:37.103Z,11.00
2017-03-26T11:37:43.061Z,11.10
2017-03-26T11:38:48.834Z,11.10
2017-03-26T11:39:54.542Z,11.10
2017-03-26T11:41:00.394Z,11.20
2017-03-26T11:42:06.335Z,11.20
2017-03-26T11:43:12.187Z,11.40
2017-03-26T11:44:18.295Z,11.40
2017-03-26T11:45:24.215Z,11.50
2017-03-26T11:46:30.276Z,11.60
2017-03-26T11:47:36.096Z,11.60
2017-03-26T11:48:42.816Z,11.70
2017-03-26T11:49:48.728Z,11.80
2017-03-26T11:50:54.471Z,11.90
2017-03-26T11:52:00.209Z,11.90
2017-03-26T11:53:06.119Z,12.00
2017-03-26T11:54:12.738Z,12.10
2017-03-26T11:55:18.557Z,12.00
2017-03-26T11:56:24.350Z,12.00
2017-03-26T11:57:30.351Z,12.00
2017-03-26T11:58:36.095Z,11.90
2017-03-26T11:59:41.933Z,12.10
2017-03-26T12:00:47.831Z,11.60
2017-03-26T12:01:53.696Z,11.60
2017-03-26T12:02:59.664Z,11.80
2017-03-26T12:04:05.660Z,12.20
2017-03-26T12:05:11.462Z,12.30
2017-03-26T12:06:17.374Z,12.80
2017-03-26T12:07:23.210Z,13.20
2017-03-26T12:08:29.055Z,13.00
2017-03-26T12:09:35.019Z,13.10
2017-03-26T12:10:40.845Z,13.30
2017-03-26T12:11:46.625Z,13.40
2017-03-26T12:12:52.474Z,13.60
2017-03-26T12:13:58.295Z,14.20
2017-03-26T12:15:04.024Z,14.50
2017-03-26T12:16:09.790Z,14.40
2017-03-26T12:17:15.598Z,14.10
2017-03-26T12:18:21.390Z,13.70
2017-03-26T12:19:27.190Z,13.40
2017-03-26T12:20:32.970Z,13.40
2017-03-26T12:21:38.830Z,13.60
2017-03-26T12:22:44.567Z,13.90
2017-03-26T12:23:51.079Z,14.10
2017-03-26T12:24:56.879Z,14.50
2017-03-26T12:26:02.630Z,14.40
2017-03-26T12:27:08.422Z,15.10
2017-03-26T12:28:14.396Z,15.70
2017-03-26T12:29:20.462Z,15.30
2017-03-26T12:30:26.295Z,15.80
2017-03-26T12:31:32.264Z,16.00
2017-03-26T12:32:38.222Z,16.00
2017-03-26T12:33:44.147Z,15.90
2017-03-26T12:34:50.053Z,15.70
2017-03-26T12:35:56.027Z,15.60
2017-03-26T12:37:01.726Z,15.30
2017-03-26T12:38:07.487Z,15.10
2017-03-26T12:39:13.493Z,15.30
2017-03-26T12:40:19.425Z,14.60
2017-03-26T12:41:25.260Z,15.00
2017-03-26T12:42:31.299Z,15.00
2017-03-26T12:43:37.323Z,14.70
2017-03-26T12:44:43.149Z,14.50
2017-03-26T12:45:49.072Z,14.90
2017-03-26T12:46:55.084Z,15.10
2017-03-26T12:48:01.076Z,14.60
2017-03-26T12:49:06.917Z,15.10
2017-03-26T12:50:12.682Z,14.70
2017-03-26T12:51:18.447Z,15.20
2017-03-26T12:52:24.431Z,15.20
2017-03-26T12:53:30.177Z,15.60
2017-03-26T12:54:36.798Z,15.80
2017-03-26T12:55:42.573Z,15.40
2017-03-26T12:56:48.405Z,15.60
2017-03-26T12:57:54.330Z,16.10
2017-03-26T12:59:00.117Z,16.50
2017-03-26T13:00:05.942Z,16.90
2017-03-26T13:01:12.642Z,17.20
2017-03-26T13:02:18.542Z,17.20
2017-03-26T13:03:24.273Z,17.20
2017-03-26T13:04:30.333Z,17.20
2017-03-26T13:05:36.398Z,17.40
2017-03-26T13:06:42.111Z,17.20
2017-03-26T13:07:47.967Z,17.10
2017-03-26T13:08:53.812Z,16.80
2017-03-26T13:10:00.133Z,16.80
2017-03-26T13:11:06.275Z,17.80
2017-03-26T13:12:12.227Z,17.60
2017-03-26T13:13:18.010Z,17.10
2017-03-26T13:14:24.345Z,17.70
2017-03-26T13:15:30.346Z,17.00
2017-03-26T13:16:36.527Z,16.60
2017-03-26T13:17:42.442Z,16.80
2017-03-26T13:18:48.162Z,16.90
2017-03-26T13:19:53.979Z,16.60
2017-03-26T13:20:59.774Z,16.80
2017-03-26T13:22:05.664Z,17.30
2017-03-26T13:23:12.162Z,17.20
2017-03-26T13:24:17.953Z,15.80
2017-03-26T13:25:23.923Z,15.90
2017-03-26T13:26:30.406Z,16.20
2017-03-26T13:27:36.150Z,16.30
2017-03-26T13:28:42.031Z,16.60
2017-03-26T13:29:48.061Z,17.30
2017-03-26T13:30:54.054Z,16.90
2017-03-26T13:32:00.058Z,16.00
2017-03-26T13:33:05.891Z,16.10
2017-03-26T13:34:11.977Z,17.20
2017-03-26T13:35:18.485Z,16.90
2017-03-26T13:36:24.322Z,17.00
2017-03-26T13:37:30.119Z,17.10
2017-03-26T13:38:35.850Z,17.30
2017-03-26T13:39:41.677Z,17.10
2017-03-26T13:40:47.498Z,17.00
2017-03-26T13:41:53.323Z,16.70
2017-03-26T13:42:59.703Z,17.00
2017-03-26T13:44:05.781Z,17.50
2017-03-26T13:45:11.565Z,17.40
2017-03-26T13:46:17.423Z,16.20
2017-03-26T13:47:24.026Z,16.00
2017-03-26T13:48:29.913Z,15.60
2017-03-26T13:49:35.665Z,15.50
2017-03-26T13:50:41.606Z,15.40
2017-03-26T13:51:47.451Z,15.70
2017-03-26T13:52:53.297Z,16.00
2017-03-26T13:53:59.046Z,16.10
2017-03-26T13:55:04.882Z,16.00
2017-03-26T13:56:11.387Z,15.70
2017-03-26T13:57:17.161Z,15.10
2017-03-26T13:58:23.292Z,15.10
2017-03-26T13:59:29.123Z,15.80
2017-03-26T14:00:35.683Z,15.70
2017-03-26T14:01:41.574Z,15.90
2017-03-26T14:02:47.359Z,15.60
2017-03-26T14:03:53.327Z,15.70
2017-03-26T14:04:59.087Z,15.30
2017-03-26T14:06:04.962Z,15.00
2017-03-26T14:07:10.747Z,15.00
2017-03-26T14:08:16.466Z,14.80
2017-03-26T14:09:22.199Z,14.20
2017-03-26T14:10:28.713Z,13.80
2017-03-26T14:11:34.800Z,13.90
2017-03-26T14:12:40.770Z,14.30
2017-03-26T14:13:46.732Z,14.60
2017-03-26T14:14:54.135Z,14.50
2017-03-26T14:16:00.020Z,14.60
2017-03-26T14:18:44.188Z,14.90
2017-03-26T14:19:54.239Z,14.60
2017-03-26T14:21:00.353Z,14.20
2017-03-26T14:22:06.143Z,14.50
2017-03-26T14:23:13.202Z,14.70
2017-03-26T14:24:20.201Z,15.00
2017-03-26T14:25:27.219Z,14.90
2017-03-26T14:26:42.450Z,14.50
2017-03-26T14:27:50.894Z,14.30
2017-03-26T14:28:57.654Z,14.90
2017-03-26T14:30:03.954Z,15.00
2017-03-26T14:31:09.866Z,15.60